Eastern Tiger — 3FYQ7 — position and weather

sailwx.info

Track history (hours):
 
Tides and Currents Weather Stations Pressure Air Temp Water Temp Dewpoint Dewpoint Depression Visibility Wind Speed Wind Dir Waves Ship Positions

Eastern Tiger

Last reported at 2017-Oct-10 23:32 UTC. Time now 2017-Oct-22 23:07 UTC.
Position N 35°30' E 139°45'.
Warning: this ship's position is 11 days out of date.

Length 97 m; draft 4.7 m.

Type: Ship (hazmat cat C). MMSI: 351818000.

Date/timePositionNaut miles runAvg speedWind from/ knotsBaromVisibWave heightAir tempDewpointWater temp
2017-Oct-10 23:32N 35°30' E 139°45'1 5.9
2017-Oct-10 23:26N 35°30' E 139°44'3 5.9
2017-Oct-10 22:58N 35°28' E 139°43'3 1.1
2017-Oct-10 20:10N 35°29' E 139°46'0 0.0
2017-Oct-10 19:57N 35°29' E 139°46'0 0.0
2017-Oct-10 19:29N 35°29' E 139°46'0 0.0
2017-Oct-10 18:56N 35°29' E 139°46'0 0.0
2017-Oct-10 18:30N 35°29' E 139°46'0 0.0
2017-Oct-10 17:58N 35°29' E 139°46'0 0.0
2017-Oct-10 16:31N 35°29' E 139°46'0 0.0
2017-Oct-10 16:26N 35°29' E 139°46'0 0.0
2017-Oct-10 15:51N 35°29' E 139°46'0 0.0
2017-Oct-10 15:24N 35°29' E 139°46'0 0.0
2017-Oct-10 14:54N 35°29' E 139°46'0 0.0
2017-Oct-10 13:59N 35°29' E 139°46'0 0.0
2017-Oct-10 13:28N 35°29' E 139°46'0 0.0
2017-Oct-10 12:18N 35°29' E 139°46'0 0.0
2017-Oct-10 08:00N 35°29' E 139°46'0 0.0
2017-Oct-10 07:28N 35°29' E 139°46'0 0.0
2017-Oct-10 07:00N 35°29' E 139°46'0 0.1
2017-Oct-10 06:30N 35°29' E 139°46'0 0.1
2017-Oct-10 05:59N 35°29' E 139°46'0 0.9
2017-Oct-10 05:30N 35°29' E 139°47'2 3.9
2017-Oct-10 05:00N 35°30' E 139°47'0 0.0
2017-Oct-09 22:42N 35°31' E 139°46'0 0.2
2017-Oct-09 22:31N 35°31' E 139°46'2 3.1
2017-Oct-09 21:47N 35°30' E 139°44'2 5.4
2017-Oct-09 21:23N 35°28' E 139°42'2 0.1
2017-Oct-08 22:27N 35°27' E 139°43'0 0.1
2017-Oct-08 21:57N 35°27' E 139°43'0 0.0
2017-Oct-08 21:27N 35°27' E 139°43'0 0.1
2017-Oct-08 20:54N 35°27' E 139°43'0 0.0
2017-Oct-08 20:30N 35°27' E 139°43'0 0.1
2017-Oct-08 20:00N 35°27' E 139°43'0 0.0
2017-Oct-08 19:30N 35°27' E 139°43'0 0.1
2017-Oct-08 18:57N 35°27' E 139°43'0 0.0
2017-Oct-08 18:30N 35°27' E 139°43'0 0.1
2017-Oct-08 18:00N 35°27' E 139°43'0 0.0
2017-Oct-08 17:30N 35°27' E 139°43'0 0.0
2017-Oct-08 17:00N 35°27' E 139°43'0 0.0
2017-Oct-08 16:30N 35°27' E 139°43'0 0.0
2017-Oct-08 16:00N 35°27' E 139°43'0 0.0
2017-Oct-08 15:30N 35°26' E 139°43'0 0.0
2017-Oct-08 15:00N 35°26' E 139°43'0 0.0
2017-Oct-08 14:30N 35°26' E 139°43'0 0.0
2017-Oct-08 14:00N 35°26' E 139°43'0 0.0
2017-Oct-08 13:27N 35°26' E 139°43'0 0.0
2017-Oct-08 13:00N 35°26' E 139°43'0 0.0
2017-Oct-08 12:30N 35°26' E 139°43'0 0.0
2017-Oct-08 12:00N 35°26' E 139°43'0 0.0
2017-Oct-08 11:30N 35°26' E 139°43'0 0.0
2017-Oct-08 11:00N 35°26' E 139°43'0 0.0
2017-Oct-08 10:30N 35°26' E 139°43'0 0.0
2017-Oct-08 09:57N 35°26' E 139°43'0 0.0
2017-Oct-08 09:27N 35°27' E 139°43'0 0.0
2017-Oct-08 09:00N 35°27' E 139°43'1 2.7
2017-Oct-08 08:30N 35°26' E 139°44'4 8.6
2017-Oct-08 08:00N 35°22' E 139°45'510.1
2017-Oct-08 07:30N 35°17' E 139°45'511.0
2017-Oct-08 07:00N 35°12' E 139°47'612.7
2017-Oct-08 06:30N 35°06' E 139°45'712.9
2017-Oct-08 06:00N 35°01' E 139°39'  
2017-Oct-02 07:52N 31°05' E 122°02'513.1
2017-Oct-02 07:30N 31°07' E 121°57'713.5
2017-Oct-02 07:01N 31°11' E 121°51'714.5
2017-Oct-02 06:30N 31°16' E 121°45'612.5
2017-Oct-02 06:01N 31°21' E 121°40'611.3
2017-Oct-02 05:31N 31°23' E 121°34'5 9.8
2017-Oct-02 05:00N 31°26' E 121°29'4 8.3
2017-Oct-02 04:31N 31°29' E 121°26'510.8
2017-Oct-02 04:01N 31°32' E 121°21'611.9
2017-Oct-02 03:30N 31°37' E 121°16'612.4
2017-Oct-02 03:00N 31°41' E 121°11'612.4
2017-Oct-02 02:29N 31°45' E 121°05'3311.4
2017-Oct-01 23:36N 32°01' E 120°32'4 8.4
2017-Oct-01 23:07N 32°00' E 120°27'0 1.5
2017-Oct-01 23:00N 32°00' E 120°27'0 0.0
2017-Oct-01 22:30N 32°00' E 120°27'0 0.0
2017-Oct-01 22:00N 32°00' E 120°27'0 0.0
2017-Oct-01 21:30N 32°00' E 120°27'0 0.0
2017-Oct-01 20:18N 32°00' E 120°27'0 0.0
2017-Oct-01 20:00N 32°00' E 120°27'  
Track history (hours):
 
Tides and Currents Weather Stations Pressure Air Temp Water Temp Dewpoint Dewpoint Depression Visibility Wind Speed Wind Dir Waves Ship Positions

Eastern Tiger

Last reported at 2017-Oct-10 23:32 UTC. Time now 2017-Oct-22 23:07 UTC.
Position N 35°30' E 139°45'.
Warning: this ship's position is 11 days out of date.

Length 97 m; draft 4.7 m.

Type: Ship (hazmat cat C). MMSI: 351818000.

Date/timePositionNaut miles runAvg speedWind from/ knotsBaromVisibWave heightAir tempDewpointWater temp
2017-Oct-10 23:32N 35°30' E 139°45'1 5.9
2017-Oct-10 23:26N 35°30' E 139°44'3 5.9
2017-Oct-10 22:58N 35°28' E 139°43'3 1.1
2017-Oct-10 20:10N 35°29' E 139°46'0 0.0
2017-Oct-10 19:57N 35°29' E 139°46'0 0.0
2017-Oct-10 19:29N 35°29' E 139°46'0 0.0
2017-Oct-10 18:56N 35°29' E 139°46'0 0.0
2017-Oct-10 18:30N 35°29' E 139°46'0 0.0
2017-Oct-10 17:58N 35°29' E 139°46'0 0.0
2017-Oct-10 16:31N 35°29' E 139°46'0 0.0
2017-Oct-10 16:26N 35°29' E 139°46'0 0.0
2017-Oct-10 15:51N 35°29' E 139°46'0 0.0
2017-Oct-10 15:24N 35°29' E 139°46'0 0.0
2017-Oct-10 14:54N 35°29' E 139°46'0 0.0
2017-Oct-10 13:59N 35°29' E 139°46'0 0.0
2017-Oct-10 13:28N 35°29' E 139°46'0 0.0
2017-Oct-10 12:18N 35°29' E 139°46'0 0.0
2017-Oct-10 08:00N 35°29' E 139°46'0 0.0
2017-Oct-10 07:28N 35°29' E 139°46'0 0.0
2017-Oct-10 07:00N 35°29' E 139°46'0 0.1
2017-Oct-10 06:30N 35°29' E 139°46'0 0.1
2017-Oct-10 05:59N 35°29' E 139°46'0 0.9
2017-Oct-10 05:30N 35°29' E 139°47'2 3.9
2017-Oct-10 05:00N 35°30' E 139°47'0 0.0
2017-Oct-09 22:42N 35°31' E 139°46'0 0.2
2017-Oct-09 22:31N 35°31' E 139°46'2 3.1
2017-Oct-09 21:47N 35°30' E 139°44'2 5.4
2017-Oct-09 21:23N 35°28' E 139°42'2 0.1
2017-Oct-08 22:27N 35°27' E 139°43'0 0.1
2017-Oct-08 21:57N 35°27' E 139°43'0 0.0
2017-Oct-08 21:27N 35°27' E 139°43'0 0.1
2017-Oct-08 20:54N 35°27' E 139°43'0 0.0
2017-Oct-08 20:30N 35°27' E 139°43'0 0.1
2017-Oct-08 20:00N 35°27' E 139°43'0 0.0
2017-Oct-08 19:30N 35°27' E 139°43'0 0.1
2017-Oct-08 18:57N 35°27' E 139°43'0 0.0
2017-Oct-08 18:30N 35°27' E 139°43'0 0.1
2017-Oct-08 18:00N 35°27' E 139°43'0 0.0
2017-Oct-08 17:30N 35°27' E 139°43'0 0.0
2017-Oct-08 17:00N 35°27' E 139°43'0 0.0
2017-Oct-08 16:30N 35°27' E 139°43'0 0.0
2017-Oct-08 16:00N 35°27' E 139°43'0 0.0
2017-Oct-08 15:30N 35°26' E 139°43'0 0.0
2017-Oct-08 15:00N 35°26' E 139°43'0 0.0
2017-Oct-08 14:30N 35°26' E 139°43'0 0.0
2017-Oct-08 14:00N 35°26' E 139°43'0 0.0
2017-Oct-08 13:27N 35°26' E 139°43'0 0.0
2017-Oct-08 13:00N 35°26' E 139°43'0 0.0
2017-Oct-08 12:30N 35°26' E 139°43'0 0.0
2017-Oct-08 12:00N 35°26' E 139°43'0 0.0
2017-Oct-08 11:30N 35°26' E 139°43'0 0.0
2017-Oct-08 11:00N 35°26' E 139°43'0 0.0
2017-Oct-08 10:30N 35°26' E 139°43'0 0.0
2017-Oct-08 09:57N 35°26' E 139°43'0 0.0
2017-Oct-08 09:27N 35°27' E 139°43'0 0.0
2017-Oct-08 09:00N 35°27' E 139°43'1 2.7
2017-Oct-08 08:30N 35°26' E 139°44'4 8.6
2017-Oct-08 08:00N 35°22' E 139°45'510.1
2017-Oct-08 07:30N 35°17' E 139°45'511.0
2017-Oct-08 07:00N 35°12' E 139°47'612.7
2017-Oct-08 06:30N 35°06' E 139°45'712.9
2017-Oct-08 06:00N 35°01' E 139°39'  
2017-Oct-02 07:52N 31°05' E 122°02'513.1
2017-Oct-02 07:30N 31°07' E 121°57'713.5
2017-Oct-02 07:01N 31°11' E 121°51'714.5
2017-Oct-02 06:30N 31°16' E 121°45'612.5
2017-Oct-02 06:01N 31°21' E 121°40'611.3
2017-Oct-02 05:31N 31°23' E 121°34'5 9.8
2017-Oct-02 05:00N 31°26' E 121°29'4 8.3
2017-Oct-02 04:31N 31°29' E 121°26'510.8
2017-Oct-02 04:01N 31°32' E 121°21'611.9
2017-Oct-02 03:30N 31°37' E 121°16'612.4
2017-Oct-02 03:00N 31°41' E 121°11'612.4
2017-Oct-02 02:29N 31°45' E 121°05'3311.4
2017-Oct-01 23:36N 32°01' E 120°32'4 8.4
2017-Oct-01 23:07N 32°00' E 120°27'0 1.5
2017-Oct-01 23:00N 32°00' E 120°27'0 0.0
2017-Oct-01 22:30N 32°00' E 120°27'0 0.0
2017-Oct-01 22:00N 32°00' E 120°27'0 0.0
2017-Oct-01 21:30N 32°00' E 120°27'0 0.0
2017-Oct-01 20:18N 32°00' E 120°27'0 0.0
2017-Oct-01 20:00N 32°00' E 120°27'  

Dump ship's entire track history